Time;durP1;ratioP1;P1;durP2;ratioP2;P2;SDS_P1;SDS_P2;PMS_P1;PMS_P2;Temp;Humidity;BMP_temperature;BMP_pressure;BME280_temperature;BME280_humidity;BME280_pressure;Samples;Min_cycle;Max_cycle;Signal;HPM_P1;HPM_P2
2023/03/15 00:01:19;;;;;;;10.60;4.97;;;27.00;99.90;;;;;;5033873;28;20497;-62
2023/03/15 00:03:47;;;;;;;10.02;4.72;;;27.20;99.90;;;;;;5040479;28;20111;-63
2023/03/15 00:06:15;;;;;;;8.63;4.43;;;27.30;99.90;;;;;;5033604;28;20103;-62
2023/03/15 00:08:46;;;;;;;12.68;4.53;;;27.50;99.90;;;;;;5045627;28;20494;-62
2023/03/15 00:11:15;;;;;;;12.75;5.85;;;27.50;99.90;;;;;;5038059;28;20506;-63
2023/03/15 00:13:43;;;;;;;8.52;4.15;;;27.60;99.90;;;;;;5044984;28;20505;-62
2023/03/15 00:16:16;;;;;;;8.80;4.63;;;27.70;99.90;;;;;;5034426;28;20576;-62
2023/03/15 00:18:45;;;;;;;9.98;5.13;;;27.60;99.90;;;;;;5030199;28;20057;-62
2023/03/15 00:21:13;;;;;;;12.00;5.63;;;27.60;99.90;;;;;;5022314;28;20029;-62
2023/03/15 00:23:41;;;;;;;10.95;5.53;;;27.80;99.90;;;;;;5028654;28;20045;-62
2023/03/15 00:26:08;;;;;;;9.77;6.00;;;28.00;99.90;;;;;;5028789;28;20609;-62
2023/03/15 00:28:36;;;;;;;9.70;5.53;;;27.90;99.90;;;;;;5035379;28;20088;-62
2023/03/15 00:31:13;;;;;;;10.48;5.90;;;28.00;99.90;;;;;;5035057;28;20029;-63
2023/03/15 00:33:40;;;;;;;9.55;5.90;;;28.20;99.90;;;;;;5032883;28;20057;-62
2023/03/15 00:36:10;;;;;;;9.00;5.80;;;28.30;99.90;;;;;;5036214;28;20021;-62
2023/03/15 00:38:40;;;;;;;10.43;5.38;;;28.40;99.90;;;;;;5027859;28;20143;-62
2023/03/15 00:41:16;;;;;;;11.07;5.85;;;28.60;99.90;;;;;;5035112;28;20600;-62
2023/03/15 00:43:44;;;;;;;7.70;5.07;;;28.40;99.90;;;;;;5027707;28;20441;-62
2023/03/15 00:46:13;;;;;;;11.55;6.30;;;28.50;99.90;;;;;;5041053;28;20421;-61
2023/03/15 00:48:40;;;;;;;9.27;5.18;;;28.80;99.90;;;;;;5042323;28;20310;-61
2023/03/15 00:51:16;;;;;;;11.20;5.78;;;28.90;99.90;;;;;;5029805;28;20029;-62
2023/03/15 00:53:45;;;;;;;9.65;5.18;;;28.60;99.90;;;;;;5046604;28;20112;-62
2023/03/15 00:56:16;;;;;;;8.98;5.18;;;28.50;99.90;;;;;;5031603;28;20028;-62
2023/03/15 00:58:44;;;;;;;10.13;5.15;;;28.60;99.90;;;;;;5031163;28;20060;-62
2023/03/15 01:01:15;;;;;;;8.65;5.80;;;28.70;99.90;;;;;;5035882;28;20130;-62
2023/03/15 01:03:43;;;;;;;13.07;5.68;;;28.70;99.90;;;;;;5034476;28;20072;-62
2023/03/15 01:06:20;;;;;;;8.45;4.95;;;28.60;99.90;;;;;;5031278;28;20049;-62
2023/03/15 01:08:47;;;;;;;11.20;5.32;;;28.60;99.90;;;;;;5025088;28;20098;-63
2023/03/15 01:11:19;;;;;;;8.57;5.32;;;28.80;99.90;;;;;;5026916;28;20474;-62
2023/03/15 01:13:46;;;;;;;8.38;5.38;;;28.70;99.90;;;;;;5037741;28;20014;-63
2023/03/15 01:16:14;;;;;;;7.63;5.38;;;29.00;99.90;;;;;;5047525;28;20034;-60
2023/03/15 01:18:42;;;;;;;13.32;5.10;;;29.30;99.90;;;;;;5030661;28;20104;-61
2023/03/15 01:21:12;;;;;;;14.50;5.70;;;29.40;99.90;;;;;;5030406;28;20036;-60
2023/03/15 01:23:40;;;;;;;13.40;5.22;;;29.60;99.90;;;;;;5030597;28;20537;-61
2023/03/15 01:26:11;;;;;;;9.82;5.35;;;29.50;99.90;;;;;;5045448;28;20684;-62
2023/03/15 01:28:38;;;;;;;7.00;4.85;;;29.50;99.70;;;;;;5027855;28;20497;-61
2023/03/15 01:31:06;;;;;;;8.80;5.20;;;29.50;99.80;;;;;;5030585;28;20112;-61
2023/03/15 01:33:33;;;;;;;12.27;5.95;;;29.40;99.40;;;;;;5041746;28;20056;-63
2023/03/15 01:36:06;;;;;;;18.08;5.68;;;29.20;99.00;;;;;;5032062;28;20053;-62
2023/03/15 01:38:34;;;;;;;7.68;5.35;;;29.20;99.90;;;;;;5027830;28;20045;-62
2023/03/15 01:41:01;;;;;;;8.55;4.85;;;29.30;99.90;;;;;;5020509;28;20128;-62
2023/03/15 01:43:30;;;;;;;11.45;5.20;;;29.50;99.90;;;;;;5026538;28;20534;-62
2023/03/15 01:46:14;;;;;;;10.48;5.25;;;29.60;99.90;;;;;;5028261;28;20033;-63
2023/03/15 01:49:06;;;;;;;9.20;5.55;;;29.90;99.90;;;;;;5028685;28;20029;-62
2023/03/15 01:51:52;;;;;;;9.32;4.72;;;30.00;99.90;;;;;;5039151;28;20131;-61
2023/03/15 01:54:24;;;;;;;11.77;5.00;;;30.20;99.90;;;;;;5023841;28;20055;-62
2023/03/15 01:56:57;;;;;;;7.47;4.13;;;30.20;97.30;;;;;;5026850;28;20124;-61
2023/03/15 01:59:32;;;;;;;12.73;4.73;;;30.20;97.20;;;;;;5028335;28;20032;-62
2023/03/15 02:02:00;;;;;;;8.82;4.78;;;30.20;96.80;;;;;;5025857;28;20027;-62
2023/03/15 02:04:54;;;;;;;6.80;3.97;;;30.20;95.70;;;;;;5027623;28;20103;-63
2023/03/15 02:07:23;;;;;;;9.52;4.70;;;30.10;94.20;;;;;;5029288;28;20072;-64
2023/03/15 02:10:13;;;;;;;8.18;4.78;;;29.90;95.70;;;;;;5030746;28;20116;-63
2023/03/15 02:12:50;;;;;;;6.63;4.35;;;29.90;95.30;;;;;;5036573;28;20104;-62
2023/03/15 02:15:18;;;;;;;7.97;4.57;;;29.90;95.60;;;;;;5036313;28;20029;-64
2023/03/15 02:17:47;;;;;;;7.88;4.22;;;29.70;96.50;;;;;;5045279;28;20401;-62
2023/03/15 02:20:50;;;;;;;8.35;4.43;;;29.70;97.70;;;;;;5032899;28;20099;-62
2023/03/15 02:23:22;;;;;;;6.88;4.43;;;30.00;98.60;;;;;;5044292;28;20052;-62
2023/03/15 02:26:19;;;;;;;7.20;4.20;;;30.10;97.00;;;;;;5031763;28;20192;-62
2023/03/15 02:28:48;;;;;;;6.53;3.55;;;30.30;97.40;;;;;;5032809;28;20036;-64
2023/03/15 02:31:15;;;;;;;5.63;3.53;;;30.50;96.10;;;;;;5036632;28;20030;-63
2023/03/15 02:33:49;;;;;;;6.82;3.53;;;30.60;95.60;;;;;;5041682;28;20090;-61
2023/03/15 02:36:28;;;;;;;6.95;3.60;;;30.90;96.30;;;;;;5031404;28;20033;-63
2023/03/15 02:38:56;;;;;;;6.03;3.30;;;30.80;92.50;;;;;;5027781;28;20033;-61
2023/03/15 02:41:54;;;;;;;5.25;3.40;;;30.90;96.10;;;;;;5032638;28;20022;-62
2023/03/15 02:44:37;;;;;;;7.22;3.58;;;30.90;94.70;;;;;;5025035;28;20045;-62
2023/03/15 02:47:12;;;;;;;5.10;3.25;;;31.10;94.40;;;;;;5027075;28;20047;-62
2023/03/15 02:49:47;;;;;;;5.63;2.95;;;31.10;94.10;;;;;;5022742;28;20040;-62
2023/03/15 02:52:15;;;;;;;6.72;3.53;;;31.20;92.90;;;;;;5027294;28;20059;-62
2023/03/15 02:54:42;;;;;;;4.22;3.50;;;31.10;91.00;;;;;;5023167;28;20036;-63
2023/03/15 02:57:12;;;;;;;3.90;2.88;;;31.10;91.30;;;;;;5028340;28;20052;-63
2023/03/15 02:59:41;;;;;;;5.10;3.25;;;31.20;92.90;;;;;;5031530;28;20529;-64
2023/03/15 03:02:10;;;;;;;8.18;3.63;;;31.30;88.10;;;;;;5028465;28;20025;-64
2023/03/15 03:04:40;;;;;;;5.28;3.28;;;31.10;90.40;;;;;;5025540;28;20037;-65
2023/03/15 03:07:08;;;;;;;6.40;3.40;;;31.20;91.40;;;;;;5033967;28;20014;-62
2023/03/15 03:09:35;;;;;;;8.23;3.25;;;31.30;91.70;;;;;;5040822;28;20052;-64
2023/03/15 03:12:03;;;;;;;3.33;2.60;;;31.40;88.10;;;;;;5030519;28;20117;-63
2023/03/15 03:14:30;;;;;;;5.47;3.55;;;31.30;88.80;;;;;;5037013;28;20486;-64
2023/03/15 03:16:58;;;;;;;6.30;3.85;;;31.10;88.40;;;;;;5044857;28;20033;-64
2023/03/15 03:19:25;;;;;;;6.20;3.72;;;31.00;87.20;;;;;;5040591;28;20379;-64
2023/03/15 03:21:54;;;;;;;5.97;3.60;;;30.70;87.80;;;;;;5029069;28;20383;-62
2023/03/15 03:24:24;;;;;;;7.28;4.00;;;30.80;87.90;;;;;;5028450;28;20060;-62
2023/03/15 03:26:56;;;;;;;5.13;3.72;;;30.90;91.60;;;;;;5030345;28;20036;-63
2023/03/15 03:29:25;;;;;;;6.45;3.50;;;30.70;88.80;;;;;;5032202;28;20017;-66
2023/03/15 03:31:52;;;;;;;8.57;3.63;;;30.70;90.60;;;;;;5029309;28;20489;-67
2023/03/15 03:34:19;;;;;;;5.13;2.92;;;30.70;82.70;;;;;;5030507;28;20025;-66
2023/03/15 03:36:49;;;;;;;5.07;3.03;;;30.90;85.30;;;;;;5030729;28;20494;-67
2023/03/15 03:39:17;;;;;;;7.65;3.67;;;31.10;89.30;;;;;;5032699;28;20101;-67
2023/03/15 03:41:44;;;;;;;5.93;3.63;;;31.30;85.40;;;;;;5029770;28;20029;-67
2023/03/15 03:44:12;;;;;;;6.88;3.05;;;31.30;83.50;;;;;;5028631;28;20033;-66
2023/03/15 03:46:39;;;;;;;4.95;2.85;;;31.40;81.00;;;;;;5029063;28;20032;-66
2023/03/15 03:49:07;;;;;;;5.30;2.85;;;31.50;83.00;;;;;;5027910;28;20040;-66
2023/03/15 03:51:35;;;;;;;5.03;2.90;;;31.50;76.20;;;;;;5035712;28;20029;-67
2023/03/15 03:54:03;;;;;;;5.70;2.85;;;31.50;79.80;;;;;;5030769;28;20013;-67
2023/03/15 03:56:32;;;;;;;5.88;2.92;;;31.50;78.90;;;;;;5031411;28;20047;-67
2023/03/15 03:58:59;;;;;;;6.60;3.38;;;31.60;83.50;;;;;;5030076;28;20013;-67
2023/03/15 04:01:26;;;;;;;4.35;3.00;;;31.70;78.20;;;;;;5025933;28;20026;-66
2023/03/15 04:03:54;;;;;;;6.47;3.13;;;31.30;77.30;;;;;;5022356;28;20034;-66
2023/03/15 04:06:22;;;;;;;6.75;2.70;;;31.20;78.90;;;;;;5028393;28;20116;-66
2023/03/15 04:08:49;;;;;;;6.43;3.00;;;31.30;78.10;;;;;;5031055;28;20084;-66
2023/03/15 04:11:17;;;;;;;4.50;2.58;;;31.30;80.30;;;;;;5027713;28;20032;-68
2023/03/15 04:13:44;;;;;;;6.57;3.00;;;31.20;76.60;;;;;;5047570;28;20052;-67
2023/03/15 04:16:13;;;;;;;5.50;2.92;;;31.40;79.00;;;;;;5034811;28;20497;-68
2023/03/15 04:18:40;;;;;;;7.57;3.10;;;31.60;79.60;;;;;;5033626;28;20033;-67
2023/03/15 04:21:09;;;;;;;7.63;3.10;;;32.00;80.50;;;;;;5039315;28;20048;-67
2023/03/15 04:23:38;;;;;;;5.03;3.55;;;32.30;79.30;;;;;;5029308;28;20533;-67
2023/03/15 04:26:05;;;;;;;9.50;3.42;;;32.50;78.00;;;;;;5032466;28;20029;-67
2023/03/15 04:28:33;;;;;;;3.90;3.08;;;32.60;74.40;;;;;;5032934;28;20028;-67
2023/03/15 04:31:01;;;;;;;4.63;3.03;;;32.40;74.20;;;;;;5019832;28;20396;-67
2023/03/15 04:33:30;;;;;;;4.53;2.72;;;32.30;72.80;;;;;;5030696;28;20021;-67
2023/03/15 04:35:58;;;;;;;4.30;3.17;;;32.30;73.40;;;;;;5032166;28;20584;-67
2023/03/15 04:38:26;;;;;;;6.50;2.88;;;32.40;73.20;;;;;;5029329;28;20052;-66
2023/03/15 04:40:54;;;;;;;5.05;3.35;;;32.20;73.10;;;;;;5042569;28;20021;-67
2023/03/15 04:43:23;;;;;;;4.90;3.22;;;32.30;76.60;;;;;;5026741;28;20057;-68
2023/03/15 04:45:51;;;;;;;5.00;3.22;;;32.40;74.60;;;;;;5023846;28;20052;-67
2023/03/15 04:48:18;;;;;;;5.28;3.03;;;32.50;74.50;;;;;;5029202;28;20033;-67
2023/03/15 04:50:46;;;;;;;5.40;2.92;;;32.60;73.70;;;;;;5020486;28;20053;-67
2023/03/15 04:53:13;;;;;;;7.10;2.90;;;32.80;72.40;;;;;;5024547;28;20032;-67
2023/03/15 04:55:41;;;;;;;4.00;2.60;;;33.00;74.20;;;;;;5025873;28;20440;-66
2023/03/15 04:58:08;;;;;;;3.53;2.33;;;32.70;70.40;;;;;;5028154;28;20021;-66
2023/03/15 05:00:36;;;;;;;5.80;2.70;;;32.50;70.50;;;;;;5027475;28;20026;-66
2023/03/15 05:03:03;;;;;;;4.15;2.70;;;32.30;70.80;;;;;;5027606;28;20522;-62
2023/03/15 05:05:33;;;;;;;3.92;2.65;;;32.10;73.00;;;;;;5025730;28;20095;-61
2023/03/15 05:08:00;;;;;;;4.10;2.55;;;31.90;72.80;;;;;;5029569;28;20025;-62
2023/03/15 05:10:32;;;;;;;5.65;2.55;;;31.70;70.40;;;;;;5024850;28;20025;-66
2023/03/15 05:12:59;;;;;;;4.60;2.67;;;31.40;70.30;;;;;;5017190;28;20025;-63
2023/03/15 05:15:27;;;;;;;2.70;2.03;;;31.00;72.10;;;;;;5028144;28;20030;-62
2023/03/15 05:17:54;;;;;;;4.00;2.45;;;30.70;71.10;;;;;;5046824;28;20014;-63
2023/03/15 05:20:24;;;;;;;4.00;2.53;;;30.50;72.20;;;;;;5025247;28;20037;-62
2023/03/15 05:22:54;;;;;;;3.65;2.05;;;30.50;73.60;;;;;;5024514;28;20033;-62
2023/03/15 05:25:23;;;;;;;7.40;3.05;;;30.20;71.70;;;;;;5022041;28;20127;-62
2023/03/15 05:27:51;;;;;;;7.07;3.40;;;30.10;79.10;;;;;;5024854;28;20040;-62
2023/03/15 05:30:20;;;;;;;8.63;4.03;;;29.70;89.20;;;;;;5015036;28;20067;-62
2023/03/15 05:32:47;;;;;;;12.48;4.75;;;29.40;92.10;;;;;;5026136;28;20057;-62
2023/03/15 05:35:15;;;;;;;10.32;5.10;;;29.20;95.70;;;;;;5029137;28;20022;-62
2023/03/15 05:37:42;;;;;;;8.98;4.20;;;29.00;96.60;;;;;;5022491;28;20196;-62
2023/03/15 05:40:10;;;;;;;12.75;4.70;;;28.80;98.80;;;;;;5029291;28;20964;-62
2023/03/15 05:42:38;;;;;;;11.27;4.85;;;28.60;99.90;;;;;;5026983;28;20026;-62
2023/03/15 05:45:06;;;;;;;12.57;3.72;;;28.70;99.90;;;;;;5029557;28;20041;-63
2023/03/15 05:47:33;;;;;;;7.38;4.13;;;28.90;99.90;;;;;;5024675;28;20115;-62
2023/03/15 05:50:01;;;;;;;12.13;4.40;;;28.90;99.90;;;;;;5018759;28;20270;-63
2023/03/15 05:52:28;;;;;;;10.15;4.45;;;29.00;99.90;;;;;;5023222;28;20372;-62
2023/03/15 05:54:56;;;;;;;9.43;3.90;;;29.10;99.90;;;;;;5020729;28;20029;-62
2023/03/15 05:57:23;;;;;;;11.82;4.45;;;29.10;99.90;;;;;;5023747;28;20112;-63
2023/03/15 05:59:51;;;;;;;10.43;4.90;;;28.90;98.80;;;;;;5025363;28;20457;-62
2023/03/15 06:02:18;;;;;;;9.82;3.55;;;28.80;98.80;;;;;;5017313;28;20072;-62
2023/03/15 06:04:45;;;;;;;11.45;3.70;;;28.70;98.20;;;;;;5018665;28;20057;-62
2023/03/15 06:07:13;;;;;;;8.73;3.67;;;28.70;97.20;;;;;;5023241;28;20032;-62
2023/03/15 06:09:40;;;;;;;10.52;3.85;;;28.60;97.80;;;;;;5023419;28;20064;-63
2023/03/15 06:12:08;;;;;;;5.40;3.08;;;28.70;97.30;;;;;;5021315;28;20773;-63
2023/03/15 06:14:35;;;;;;;5.10;2.30;;;28.80;96.20;;;;;;5018170;28;20061;-62
2023/03/15 06:17:02;;;;;;;7.25;2.88;;;28.90;93.80;;;;;;5014491;28;20033;-63
2023/03/15 06:19:30;;;;;;;10.13;2.92;;;28.90;93.00;;;;;;5021671;28;20014;-63
2023/03/15 06:21:57;;;;;;;10.45;3.78;;;28.90;94.90;;;;;;5016386;28;20089;-63
2023/03/15 06:24:25;;;;;;;9.73;3.28;;;28.80;96.30;;;;;;5020975;28;20029;-63
2023/03/15 06:26:53;;;;;;;7.47;2.72;;;28.70;97.30;;;;;;5029958;28;20116;-63
2023/03/15 06:29:21;;;;;;;9.30;3.85;;;28.70;97.50;;;;;;5016424;28;20465;-63
2023/03/15 06:31:49;;;;;;;9.77;3.67;;;28.60;97.40;;;;;;5027323;28;20056;-63
2023/03/15 06:34:17;;;;;;;10.63;3.90;;;28.50;98.30;;;;;;5030516;28;20056;-67
2023/03/15 06:36:44;;;;;;;14.30;4.03;;;28.40;99.80;;;;;;5030230;28;20076;-63
2023/03/15 06:39:13;;;;;;;12.50;3.95;;;28.30;99.90;;;;;;5029603;28;20013;-64
2023/03/15 06:41:41;;;;;;;9.85;4.50;;;28.20;99.90;;;;;;5026731;28;20048;-64
2023/03/15 06:44:09;;;;;;;17.88;4.93;;;28.20;99.90;;;;;;5041371;28;20436;-63
2023/03/15 06:46:38;;;;;;;14.82;5.15;;;28.10;99.90;;;;;;5033800;28;20714;-63
2023/03/15 06:49:06;;;;;;;8.85;3.95;;;28.00;99.90;;;;;;5025624;28;20478;-63
2023/03/15 06:51:33;;;;;;;10.85;3.80;;;28.00;99.90;;;;;;5027412;28;20049;-68
2023/03/15 06:54:01;;;;;;;10.13;4.28;;;27.90;99.90;;;;;;5029212;28;20439;-64
2023/03/15 06:56:28;;;;;;;11.15;5.07;;;27.90;99.90;;;;;;5024869;28;20101;-63
2023/03/15 06:58:55;;;;;;;9.75;4.55;;;27.70;99.90;;;;;;5025967;28;20032;-64
2023/03/15 07:01:23;;;;;;;10.75;4.90;;;27.60;99.90;;;;;;5024843;28;20124;-63
2023/03/15 07:03:50;;;;;;;12.13;4.85;;;27.50;99.90;;;;;;5028776;28;20088;-64
2023/03/15 07:06:17;;;;;;;11.35;4.43;;;27.40;99.90;;;;;;5027325;28;20159;-64
2023/03/15 07:08:45;;;;;;;10.23;4.65;;;27.30;99.90;;;;;;5023943;28;20470;-63
2023/03/15 07:11:13;;;;;;;13.13;5.38;;;27.20;99.90;;;;;;5024765;28;20466;-62
2023/03/15 07:13:40;;;;;;;10.85;4.20;;;27.20;99.90;;;;;;5031958;28;20028;-63
2023/03/15 07:16:08;;;;;;;9.35;4.20;;;27.20;99.90;;;;;;5022559;28;20025;-63
2023/03/15 07:18:35;;;;;;;11.30;4.80;;;27.00;99.90;;;;;;5026706;28;20036;-62
2023/03/15 07:21:06;;;;;;;10.05;4.30;;;27.00;99.90;;;;;;5024662;28;20026;-62
2023/03/15 07:23:34;;;;;;;7.10;4.00;;;26.90;99.90;;;;;;5022546;28;20025;-62
2023/03/15 07:26:02;;;;;;;9.00;4.68;;;26.80;99.90;;;;;;5031340;28;20029;-65
2023/03/15 07:28:29;;;;;;;11.88;5.15;;;26.70;99.90;;;;;;5023256;28;20390;-62
2023/03/15 07:31:02;;;;;;;10.57;4.38;;;26.70;99.90;;;;;;5021162;28;20024;-62
2023/03/15 07:33:32;;;;;;;12.82;4.50;;;26.60;99.90;;;;;;5029260;28;20099;-64
2023/03/15 07:36:03;;;;;;;10.27;4.65;;;26.40;99.90;;;;;;5030914;28;20025;-62
2023/03/15 07:38:31;;;;;;;12.70;5.38;;;26.30;99.90;;;;;;5029037;28;20025;-62
2023/03/15 07:41:02;;;;;;;10.52;4.97;;;26.20;99.90;;;;;;5033549;28;20572;-62
2023/03/15 07:43:30;;;;;;;10.88;4.60;;;26.10;99.90;;;;;;5021202;28;20025;-63
2023/03/15 07:45:58;;;;;;;11.63;5.22;;;26.00;99.90;;;;;;5029736;28;20029;-64
2023/03/15 07:48:25;;;;;;;13.23;4.63;;;25.90;99.90;;;;;;5029080;28;20055;-63
2023/03/15 07:50:53;;;;;;;8.82;3.97;;;25.80;99.90;;;;;;5033996;28;20529;-63
2023/03/15 07:53:20;;;;;;;10.32;4.78;;;25.70;99.90;;;;;;5022798;28;20041;-62
2023/03/15 07:55:48;;;;;;;13.75;4.63;;;25.60;99.90;;;;;;5025668;28;20148;-62
2023/03/15 07:58:16;;;;;;;13.32;5.90;;;25.50;99.90;;;;;;5031355;28;20063;-62
2023/03/15 08:00:43;;;;;;;12.15;4.82;;;25.40;99.90;;;;;;5035087;28;20053;-65
2023/03/15 08:03:11;;;;;;;14.05;5.70;;;25.40;99.90;;;;;;5027427;28;20405;-63
2023/03/15 08:05:39;;;;;;;9.98;4.53;;;25.20;99.90;;;;;;5034672;28;20050;-63
2023/03/15 08:08:06;;;;;;;12.85;5.68;;;25.10;99.90;;;;;;5028361;28;20387;-66
2023/03/15 08:10:34;;;;;;;13.27;5.47;;;25.00;99.90;;;;;;5027778;28;20395;-63
2023/03/15 08:13:01;;;;;;;12.05;5.10;;;25.00;99.90;;;;;;5025118;28;20040;-63
2023/03/15 08:15:29;;;;;;;10.75;5.32;;;25.00;99.90;;;;;;5027513;28;20024;-63
2023/03/15 08:17:58;;;;;;;17.15;6.55;;;24.90;99.90;;;;;;5033448;28;20040;-63
2023/03/15 08:20:27;;;;;;;12.60;6.53;;;24.80;99.90;;;;;;5036117;28;20466;-66
2023/03/15 08:22:54;;;;;;;15.75;6.00;;;24.60;99.90;;;;;;5026275;28;20021;-63
2023/03/15 08:25:23;;;;;;;10.52;5.13;;;24.50;99.90;;;;;;5028707;28;20042;-62
2023/03/15 08:27:51;;;;;;;16.02;6.28;;;24.40;99.90;;;;;;5027019;28;20379;-63
2023/03/15 08:30:20;;;;;;;15.70;6.40;;;24.30;99.90;;;;;;5026924;28;20159;-63
2023/03/15 08:32:51;;;;;;;14.13;6.38;;;24.20;99.90;;;;;;5017581;28;20074;-63
2023/03/15 08:35:20;;;;;;;12.15;5.65;;;24.20;99.90;;;;;;5025914;28;20033;-63
2023/03/15 08:37:48;;;;;;;11.18;5.40;;;24.10;99.90;;;;;;5021429;28;20022;-64
2023/03/15 08:40:18;;;;;;;13.45;6.82;;;24.00;99.90;;;;;;5028080;28;20073;-62
2023/03/15 08:42:45;;;;;;;18.45;6.57;;;23.90;99.90;;;;;;5032978;28;20085;-60
2023/03/15 08:45:13;;;;;;;15.35;6.28;;;23.80;99.90;;;;;;5027826;28;20040;-61
2023/03/15 08:47:41;;;;;;;12.75;5.88;;;23.80;99.90;;;;;;5027755;28;20409;-61
2023/03/15 08:50:12;;;;;;;15.90;7.30;;;23.90;99.90;;;;;;5032798;28;20064;-62
2023/03/15 08:52:41;;;;;;;13.10;6.05;;;23.80;99.90;;;;;;5026678;28;20029;-62
2023/03/15 08:55:09;;;;;;;11.27;6.05;;;23.70;99.90;;;;;;5027883;28;20047;-61
2023/03/15 08:57:37;;;;;;;10.98;5.45;;;23.60;99.90;;;;;;5028483;28;20044;-61
2023/03/15 09:00:07;;;;;;;13.25;6.63;;;23.50;99.90;;;;;;5026672;28;20018;-62
2023/03/15 09:02:35;;;;;;;14.73;6.63;;;23.40;99.90;;;;;;5020992;28;20033;-61
2023/03/15 09:05:05;;;;;;;16.48;5.90;;;23.30;99.90;;;;;;5027079;28;20052;-62
2023/03/15 09:07:33;;;;;;;15.18;6.95;;;23.20;99.90;;;;;;5024629;28;20075;-61
2023/03/15 09:10:01;;;;;;;16.70;6.72;;;23.10;99.90;;;;;;5024375;28;20048;-61
2023/03/15 09:12:29;;;;;;;12.57;5.65;;;23.00;99.90;;;;;;5026197;28;20119;-62
2023/03/15 09:14:56;;;;;;;13.25;6.38;;;22.80;99.90;;;;;;5016299;28;20033;-62
2023/03/15 09:17:24;;;;;;;13.43;6.50;;;22.70;99.90;;;;;;5021764;28;20087;-61
2023/03/15 09:19:51;;;;;;;14.82;7.30;;;22.70;99.90;;;;;;5028125;28;20030;-61
2023/03/15 09:22:19;;;;;;;15.63;6.63;;;22.70;99.90;;;;;;5023549;28;20545;-61
2023/03/15 09:24:46;;;;;;;17.63;7.40;;;22.60;99.90;;;;;;5019415;28;20042;-65
2023/03/15 09:27:13;;;;;;;14.07;6.03;;;22.60;99.90;;;;;;5023398;28;20439;-62
2023/03/15 09:29:41;;;;;;;13.77;7.13;;;22.50;99.90;;;;;;5027172;28;20043;-61
2023/03/15 09:32:10;;;;;;;15.82;6.43;;;22.40;99.90;;;;;;5022915;28;20029;-62
2023/03/15 09:34:38;;;;;;;12.32;6.15;;;22.20;99.90;;;;;;5026179;28;20198;-63
2023/03/15 09:37:05;;;;;;;15.00;7.43;;;22.10;99.90;;;;;;5019351;28;20018;-61
2023/03/15 09:39:33;;;;;;;17.23;7.70;;;22.00;99.90;;;;;;5018959;28;20072;-62
2023/03/15 09:42:03;;;;;;;15.43;6.93;;;21.90;99.90;;;;;;5020744;28;20079;-61
2023/03/15 09:44:56;;;;;;;19.17;7.30;;;21.90;99.90;;;;;;5018630;28;20156;-61
2023/03/15 09:47:45;;;;;;;16.98;7.78;;;21.90;99.90;;;;;;5021964;28;20087;-61
2023/03/15 09:50:20;;;;;;;21.58;7.50;;;21.90;99.90;;;;;;5027082;28;20035;-61
2023/03/15 09:52:53;;;;;;;15.63;7.10;;;21.90;99.90;;;;;;5034114;28;20131;-62
2023/03/15 09:55:26;;;;;;;17.63;7.63;;;21.90;99.90;;;;;;5038641;28;20548;-62
2023/03/15 09:58:01;;;;;;;26.15;9.65;;;21.90;99.90;;;;;;5032114;28;20357;-61
2023/03/15 10:00:47;;;;;;;;;;;21.90;99.90;;;;;;5019154;28;20025;-62
2023/03/15 10:03:40;;;;;;;16.13;7.68;;;21.90;99.90;;;;;;5026071;28;19952;-62
2023/03/15 10:06:23;;;;;;;24.45;8.95;;;21.80;99.90;;;;;;5025143;28;20099;-62
2023/03/15 10:08:58;;;;;;;19.75;8.73;;;21.70;99.90;;;;;;5024831;28;20033;-63
2023/03/15 10:11:51;;;;;;;22.08;7.80;;;21.60;99.90;;;;;;5024491;28;20018;-64
2023/03/15 10:14:38;;;;;;;21.42;9.40;;;21.50;99.90;;;;;;5027281;28;20501;-62
2023/03/15 10:17:20;;;;;;;19.58;9.35;;;21.40;99.90;;;;;;5032524;28;20546;-62
2023/03/15 10:20:00;;;;;;;21.67;8.30;;;21.30;99.90;;;;;;5024284;28;20445;-62
2023/03/15 10:22:53;;;;;;;16.98;7.93;;;21.20;99.90;;;;;;5024161;28;20494;-62
2023/03/15 10:25:31;;;;;;;21.85;9.95;;;21.10;99.90;;;;;;5017728;28;20052;-62
2023/03/15 10:28:19;;;;;;;25.98;9.73;;;21.00;99.90;;;;;;5026669;28;20022;-62
2023/03/15 10:30:50;;;;;;;20.95;10.25;;;21.00;99.90;;;;;;5025499;28;20028;-62
2023/03/15 10:33:34;;;;;;;20.88;8.85;;;21.00;99.90;;;;;;5025201;28;20032;-62
2023/03/15 10:36:10;;;;;;;21.10;10.33;;;20.90;99.90;;;;;;5021255;28;20103;-62
2023/03/15 10:38:41;;;;;;;23.17;9.85;;;20.80;99.90;;;;;;5014883;28;20028;-62
2023/03/15 10:41:13;;;;;;;25.08;10.68;;;20.70;99.90;;;;;;5023922;28;20025;-62
2023/03/15 10:43:41;;;;;;;18.98;8.65;;;20.60;99.90;;;;;;5014278;28;20505;-62
2023/03/15 10:46:10;;;;;;;29.35;11.30;;;20.70;99.90;;;;;;5023514;28;20059;-63
2023/03/15 10:48:40;;;;;;;18.73;9.15;;;20.90;99.90;;;;;;5017231;28;20021;-61
2023/03/15 10:51:24;;;;;;;24.92;10.00;;;21.20;99.90;;;;;;5028074;28;20036;-61
2023/03/15 10:54:11;;;;;;;23.15;8.85;;;21.40;99.90;;;;;;5022345;28;20022;-61
2023/03/15 10:56:46;;;;;;;20.10;9.43;;;21.60;99.90;;;;;;5040641;28;20034;-61
2023/03/15 10:59:24;;;;;;;22.92;9.32;;;21.70;99.90;;;;;;5025467;28;20055;-61
2023/03/15 11:01:54;;;;;;;18.90;8.32;;;21.50;99.90;;;;;;5021362;28;20113;-62
2023/03/15 11:04:29;;;;;;;18.75;8.77;;;21.40;99.90;;;;;;5029220;28;20033;-60
2023/03/15 11:07:06;;;;;;;23.92;9.07;;;21.40;99.90;;;;;;5026134;28;20033;-62
2023/03/15 11:09:54;;;;;;;22.70;9.27;;;21.50;99.90;;;;;;5020435;28;20081;-61
2023/03/15 11:12:33;;;;;;;20.00;9.38;;;21.50;99.90;;;;;;5018188;28;20022;-61
2023/03/15 11:15:06;;;;;;;19.13;9.68;;;21.50;99.90;;;;;;5032479;28;20088;-61
2023/03/15 11:17:41;;;;;;;23.80;10.02;;;21.50;99.90;;;;;;5036115;28;20037;-63
2023/03/15 11:20:34;;;;;;;22.67;10.07;;;21.50;99.90;;;;;;5022620;28;20109;-61
2023/03/15 11:23:17;;;;;;;20.08;8.88;;;21.40;99.90;;;;;;5029456;28;20033;-62
2023/03/15 11:25:45;;;;;;;18.85;8.75;;;21.30;99.90;;;;;;5027133;28;20060;-61
2023/03/15 11:28:24;;;;;;;21.25;9.65;;;21.30;99.90;;;;;;5035272;28;20126;-61
2023/03/15 11:30:52;;;;;;;25.00;9.40;;;21.20;99.90;;;;;;5017310;28;20028;-61
2023/03/15 11:33:47;;;;;;;18.90;8.70;;;21.40;99.90;;;;;;5028343;28;20021;-61
2023/03/15 11:36:19;;;;;;;;;;;21.40;99.90;;;;;;5025027;28;20638;-61
2023/03/15 11:38:47;;;;;;;22.92;9.98;;;21.40;99.90;;;;;;5035546;28;19908;-63
2023/03/15 11:41:36;;;;;;;25.98;10.85;;;21.40;99.90;;;;;;5040139;28;20075;-60
2023/03/15 11:44:33;;;;;;;17.40;9.95;;;21.40;99.90;;;;;;5032188;28;20046;-62
2023/03/15 11:47:22;;;;;;;18.83;9.35;;;21.40;99.90;;;;;;5023083;28;20112;-62
2023/03/15 11:49:53;;;;;;;19.73;9.55;;;21.40;99.90;;;;;;5026425;28;20028;-61
2023/03/15 11:52:29;;;;;;;24.85;9.63;;;21.40;99.90;;;;;;5037278;28;20027;-61
2023/03/15 11:54:59;;;;;;;22.13;10.00;;;21.30;99.90;;;;;;5026985;28;20064;-62
2023/03/15 11:57:36;;;;;;;18.00;8.98;;;21.20;99.90;;;;;;5029836;28;20049;-61
2023/03/15 12:00:35;;;;;;;15.95;8.15;;;21.00;99.90;;;;;;5020120;28;20022;-62
2023/03/15 12:03:33;;;;;;;16.42;9.02;;;20.90;99.90;;;;;;5040221;28;20029;-62
2023/03/15 12:06:10;;;;;;;19.45;8.77;;;20.70;99.90;;;;;;5032058;28;20045;-61
2023/03/15 12:08:50;;;;;;;16.60;8.73;;;20.60;99.90;;;;;;5028679;28;20057;-62
2023/03/15 12:11:23;;;;;;;18.02;8.90;;;20.50;99.90;;;;;;5026541;28;20029;-61
2023/03/15 12:14:05;;;;;;;18.27;9.07;;;20.40;99.90;;;;;;5029145;28;20120;-62
2023/03/15 12:16:40;;;;;;;14.30;7.35;;;20.30;99.90;;;;;;5034355;28;20056;-62
2023/03/15 12:19:17;;;;;;;15.23;7.88;;;20.20;99.90;;;;;;5030213;28;20620;-61
2023/03/15 12:21:56;;;;;;;17.63;8.38;;;20.10;99.90;;;;;;5033649;28;20021;-62
2023/03/15 12:24:38;;;;;;;17.98;7.72;;;19.90;99.90;;;;;;5024027;28;20083;-61
2023/03/15 12:27:23;;;;;;;15.80;7.38;;;19.90;99.90;;;;;;5019187;28;20032;-61
2023/03/15 12:30:00;;;;;;;22.13;8.70;;;19.80;99.90;;;;;;5020373;28;20061;-61
2023/03/15 12:32:30;;;;;;;20.02;8.80;;;19.70;99.90;;;;;;5025265;28;20133;-61
2023/03/15 12:35:07;;;;;;;15.15;8.80;;;19.70;99.90;;;;;;5033261;28;20060;-62
2023/03/15 12:37:45;;;;;;;20.08;9.23;;;19.70;99.90;;;;;;5025199;28;20060;-61
2023/03/15 12:40:17;;;;;;;27.20;10.30;;;19.70;99.90;;;;;;5014037;28;20053;-61
2023/03/15 12:42:47;;;;;;;19.05;9.60;;;19.70;99.90;;;;;;5027388;28;20386;-61
2023/03/15 12:45:18;;;;;;;21.63;9.77;;;19.60;99.90;;;;;;5027274;28;20033;-61
2023/03/15 12:47:47;;;;;;;25.38;10.05;;;19.50;99.90;;;;;;5028796;28;20022;-61
2023/03/15 12:50:36;;;;;;;25.58;10.55;;;19.50;99.90;;;;;;5029586;28;20029;-61
2023/03/15 12:53:13;;;;;;;23.70;10.15;;;19.40;99.90;;;;;;5027517;28;20025;-62
2023/03/15 12:55:41;;;;;;;29.52;10.45;;;19.30;99.90;;;;;;5018000;28;20026;-62
2023/03/15 12:58:12;;;;;;;26.15;11.73;;;19.30;99.90;;;;;;5020208;28;20076;-62
2023/03/15 13:00:43;;;;;;;29.23;11.93;;;19.20;99.90;;;;;;5029186;28;20136;-62
2023/03/15 13:03:22;;;;;;;25.55;11.23;;;19.30;99.90;;;;;;5016593;28;20034;-61